createdAt,value
2019-04-03T00:01:04.036Z,19.17
2019-04-03T00:03:37.109Z,18.67
2019-04-03T00:06:10.623Z,19.93
2019-04-03T00:08:44.005Z,19.40
2019-04-03T00:11:17.679Z,18.90
2019-04-03T00:13:51.319Z,19.97
2019-04-03T00:16:24.717Z,19.97
2019-04-03T00:18:58.224Z,18.50
2019-04-03T00:21:31.586Z,17.73
2019-04-03T00:24:05.182Z,16.57
2019-04-03T00:26:38.618Z,16.57
2019-04-03T00:29:12.308Z,16.33
2019-04-03T00:31:45.783Z,16.13
2019-04-03T00:34:19.316Z,17.13
2019-04-03T00:36:53.176Z,17.27
2019-04-03T00:39:27.247Z,15.93
2019-04-03T00:42:00.730Z,15.70
2019-04-03T00:44:35.332Z,15.43
2019-04-03T00:47:08.818Z,14.33
2019-04-03T00:49:42.286Z,15.67
2019-04-03T00:52:15.726Z,15.60
2019-04-03T00:54:49.223Z,15.83
2019-04-03T00:57:22.798Z,14.93
2019-04-03T00:59:56.893Z,14.57
2019-04-03T01:02:30.564Z,15.83
2019-04-03T01:05:05.191Z,14.10
2019-04-03T01:07:38.738Z,14.00
2019-04-03T01:10:12.693Z,14.13
2019-04-03T01:12:46.287Z,14.67
2019-04-03T01:15:19.757Z,14.83
2019-04-03T01:17:53.237Z,15.60
2019-04-03T01:20:26.687Z,17.33
2019-04-03T01:23:00.110Z,18.53
2019-04-03T01:25:33.814Z,18.53
2019-04-03T01:28:07.200Z,20.07
2019-04-03T01:30:40.700Z,19.33
2019-04-03T01:33:16.115Z,17.57
2019-04-03T01:35:49.597Z,16.63
2019-04-03T01:38:23.029Z,19.03
2019-04-03T01:40:56.616Z,17.73
2019-04-03T01:43:29.978Z,15.77
2019-04-03T01:46:03.325Z,16.50
2019-04-03T01:48:36.675Z,14.63
2019-04-03T01:51:10.018Z,15.20
2019-04-03T01:53:43.386Z,15.50
2019-04-03T01:56:16.810Z,14.53
2019-04-03T01:58:50.125Z,14.17
2019-04-03T02:01:23.598Z,13.47
2019-04-03T02:03:57.146Z,12.00
2019-04-03T02:06:30.503Z,14.17
2019-04-03T02:09:05.643Z,11.47
2019-04-03T02:11:39.415Z,9.50
2019-04-03T02:14:12.854Z,11.87
2019-04-03T02:16:46.262Z,12.97
2019-04-03T02:19:19.580Z,12.47
2019-04-03T02:21:52.943Z,13.13
2019-04-03T02:24:26.608Z,12.37
2019-04-03T02:27:00.937Z,13.10
2019-04-03T02:29:35.455Z,12.90
2019-04-03T02:32:08.803Z,12.20
2019-04-03T02:34:42.311Z,13.60
2019-04-03T02:37:16.832Z,12.07
2019-04-03T02:39:50.938Z,12.20
2019-04-03T02:42:24.417Z,11.27
2019-04-03T02:44:57.838Z,12.80
2019-04-03T02:47:33.509Z,12.53
2019-04-03T02:50:06.821Z,12.37
2019-04-03T02:52:40.429Z,11.80
2019-04-03T02:55:14.034Z,11.50
2019-04-03T02:57:49.342Z,11.03
2019-04-03T03:00:22.744Z,11.80
2019-04-03T03:02:56.162Z,11.37
2019-04-03T03:05:29.671Z,11.20
2019-04-03T03:08:03.105Z,11.30
2019-04-03T03:10:37.590Z,11.83
2019-04-03T03:13:10.871Z,12.60
2019-04-03T03:15:45.095Z,12.73
2019-04-03T03:18:19.422Z,11.53
2019-04-03T03:20:53.009Z,13.10
2019-04-03T03:23:26.446Z,11.97
2019-04-03T03:26:00.114Z,11.43
2019-04-03T03:28:33.737Z,10.93
2019-04-03T03:31:08.164Z,13.00
2019-04-03T03:33:42.546Z,10.77
2019-04-03T03:36:21.824Z,12.20
2019-04-03T03:38:51.517Z,10.70
2019-04-03T03:41:24.963Z,10.57
2019-04-03T03:43:58.608Z,10.33
2019-04-03T03:46:32.817Z,10.70
2019-04-03T03:49:06.604Z,11.57
2019-04-03T03:51:40.238Z,11.37
2019-04-03T03:54:16.683Z,11.40
2019-04-03T03:56:49.239Z,12.60
2019-04-03T03:59:23.049Z,10.57
2019-04-03T04:01:56.660Z,10.97
2019-04-03T04:04:30.011Z,11.70
2019-04-03T04:07:04.613Z,13.70
2019-04-03T04:09:38.865Z,11.97
2019-04-03T04:12:12.363Z,10.70
2019-04-03T04:14:45.870Z,11.10
2019-04-03T04:17:19.809Z,13.03
2019-04-03T04:19:54.185Z,11.00
2019-04-03T04:22:28.256Z,9.70
2019-04-03T04:25:03.533Z,12.33
2019-04-03T04:27:38.533Z,12.87
2019-04-03T04:30:12.896Z,11.70
2019-04-03T04:32:46.964Z,11.70
2019-04-03T04:35:21.496Z,10.67
2019-04-03T04:37:56.622Z,10.43
2019-04-03T04:40:31.247Z,11.07
2019-04-03T04:43:07.435Z,12.07
2019-04-03T04:45:40.810Z,13.23
2019-04-03T04:48:16.542Z,11.80
2019-04-03T04:50:50.672Z,15.83
2019-04-03T04:53:24.295Z,14.27
2019-04-03T04:55:57.776Z,14.53
2019-04-03T04:58:31.167Z,14.00
2019-04-03T05:01:04.576Z,15.63
2019-04-03T05:03:37.989Z,16.93
2019-04-03T05:06:11.502Z,13.00
2019-04-03T05:08:44.959Z,14.10
2019-04-03T05:11:18.507Z,14.13
2019-04-03T05:13:51.919Z,14.33
2019-04-03T05:16:25.706Z,14.27
2019-04-03T05:19:08.721Z,17.33
2019-04-03T05:21:34.235Z,15.20
2019-04-03T05:24:13.189Z,14.90
2019-04-03T05:26:42.775Z,14.27
2019-04-03T05:29:16.446Z,14.00
2019-04-03T05:31:49.847Z,12.47
2019-04-03T05:34:23.353Z,15.30
2019-04-03T05:36:57.092Z,13.53
2019-04-03T05:39:30.516Z,15.57
2019-04-03T05:42:04.017Z,12.73
2019-04-03T05:44:37.602Z,15.90
2019-04-03T05:47:11.046Z,13.73
2019-04-03T05:49:46.434Z,13.37
2019-04-03T05:52:19.620Z,14.90
2019-04-03T05:54:52.995Z,16.07
2019-04-03T05:57:28.652Z,12.53
2019-04-03T06:00:02.547Z,13.47
2019-04-03T06:02:36.876Z,11.40
2019-04-03T06:05:12.702Z,11.27
2019-04-03T06:07:47.036Z,12.83
2019-04-03T06:10:20.645Z,12.77
2019-04-03T06:12:54.095Z,15.97
2019-04-03T06:15:27.555Z,13.03
2019-04-03T06:18:00.952Z,12.87
2019-04-03T06:20:34.348Z,13.83
2019-04-03T06:23:07.858Z,14.03
2019-04-03T06:25:41.489Z,13.57
2019-04-03T06:28:14.953Z,13.73
2019-04-03T06:30:48.463Z,14.00
2019-04-03T06:33:21.865Z,14.33
2019-04-03T06:35:55.194Z,14.90
2019-04-03T06:38:28.744Z,15.37
2019-04-03T06:41:02.070Z,18.27
2019-04-03T06:43:35.491Z,17.33
2019-04-03T06:46:09.052Z,15.63
2019-04-03T06:48:42.726Z,15.20
2019-04-03T06:51:16.865Z,15.83
2019-04-03T06:53:50.390Z,16.10
2019-04-03T06:56:23.839Z,14.77
2019-04-03T06:58:57.298Z,16.63
2019-04-03T07:01:30.694Z,13.77
2019-04-03T07:04:05.826Z,14.70
2019-04-03T07:06:39.312Z,14.07
2019-04-03T07:09:22.768Z,14.10
2019-04-03T07:11:48.414Z,13.50
2019-04-03T07:14:21.806Z,15.70
2019-04-03T07:16:55.184Z,16.27
2019-04-03T07:19:28.885Z,14.67
2019-04-03T07:22:02.365Z,14.20
2019-04-03T07:24:36.016Z,13.30
2019-04-03T07:27:09.466Z,13.73
2019-04-03T07:29:42.861Z,12.93
2019-04-03T07:32:16.230Z,13.47
2019-04-03T07:34:50.085Z,13.13
2019-04-03T07:37:23.546Z,13.17
2019-04-03T07:39:58.693Z,14.87
2019-04-03T07:42:32.124Z,13.67
2019-04-03T07:45:06.893Z,13.10
2019-04-03T07:47:40.437Z,15.17
2019-04-03T07:50:14.377Z,14.83
2019-04-03T07:52:48.873Z,14.57
2019-04-03T07:55:24.221Z,14.70
2019-04-03T07:58:00.014Z,15.50
2019-04-03T08:00:32.869Z,14.30
2019-04-03T08:03:06.499Z,15.63
2019-04-03T08:05:39.919Z,14.50
2019-04-03T08:08:13.317Z,15.87
2019-04-03T08:10:46.725Z,15.57
2019-04-03T08:13:20.268Z,13.20
2019-04-03T08:15:53.646Z,14.73
2019-04-03T08:18:27.054Z,13.32
2019-04-03T08:21:01.834Z,14.35
2019-04-03T08:23:36.754Z,12.90
2019-04-03T08:26:12.174Z,12.60
2019-04-03T08:28:45.800Z,11.18
2019-04-03T08:31:19.254Z,9.50
2019-04-03T08:33:52.703Z,9.08
2019-04-03T08:36:26.773Z,8.73
2019-04-03T08:39:00.623Z,9.63
2019-04-03T08:41:36.726Z,10.53
2019-04-03T08:44:10.744Z,11.18
2019-04-03T08:46:44.616Z,11.77
2019-04-03T08:49:18.084Z,10.55
2019-04-03T08:51:51.440Z,11.83
2019-04-03T08:54:24.935Z,11.67
2019-04-03T08:56:58.231Z,12.63
2019-04-03T08:59:31.733Z,13.05
2019-04-03T09:02:05.853Z,13.93
2019-04-03T09:04:40.289Z,15.53
2019-04-03T09:07:13.688Z,14.77
2019-04-03T09:09:47.065Z,16.00
2019-04-03T09:12:20.811Z,14.23
2019-04-03T09:14:54.990Z,18.57
2019-04-03T09:17:29.559Z,15.13
2019-04-03T09:20:03.613Z,16.17
2019-04-03T09:22:37.029Z,17.53
2019-04-03T09:25:13.267Z,17.17
2019-04-03T09:27:45.801Z,19.67
2019-04-03T09:30:19.530Z,17.57
2019-04-03T09:32:53.976Z,18.47
2019-04-03T09:35:27.855Z,21.33
2019-04-03T09:38:01.218Z,18.03
2019-04-03T09:40:34.545Z,16.50
2019-04-03T09:43:07.918Z,18.20
2019-04-03T09:45:41.377Z,17.37
2019-04-03T09:48:14.766Z,21.17
2019-04-03T09:50:48.153Z,22.77
2019-04-03T09:53:21.811Z,20.23
2019-04-03T09:55:55.358Z,21.93
2019-04-03T09:58:28.785Z,16.67
2019-04-03T10:01:02.267Z,27.33
2019-04-03T10:03:35.733Z,44.73
2019-04-03T10:06:09.674Z,30.90
2019-04-03T10:08:43.146Z,47.90
2019-04-03T10:11:19.591Z,17.73
2019-04-03T10:13:52.258Z,22.43
2019-04-03T10:16:25.588Z,18.80
2019-04-03T10:18:59.274Z,21.10
2019-04-03T10:21:33.746Z,22.50
2019-04-03T10:24:13.309Z,21.23
2019-04-03T10:26:42.257Z,24.37
2019-04-03T10:29:17.045Z,27.27
2019-04-03T10:31:50.744Z,25.37
2019-04-03T10:34:24.120Z,37.40
2019-04-03T10:36:57.440Z,18.90
2019-04-03T10:39:30.775Z,24.63
2019-04-03T10:42:04.298Z,28.70
2019-04-03T10:44:37.782Z,21.53
2019-04-03T10:47:11.276Z,21.67
2019-04-03T10:49:44.952Z,25.97
2019-04-03T10:52:18.381Z,17.53
2019-04-03T10:54:51.803Z,24.77
2019-04-03T10:57:25.196Z,23.93
2019-04-03T10:59:58.682Z,19.50
2019-04-03T11:02:32.073Z,18.70
2019-04-03T11:05:08.080Z,23.93
2019-04-03T11:07:41.463Z,26.67
2019-04-03T11:10:15.510Z,22.10
2019-04-03T11:12:49.051Z,36.60
2019-04-03T11:15:22.471Z,23.43
2019-04-03T11:17:56.150Z,27.13
2019-04-03T11:20:29.608Z,24.43
2019-04-03T11:23:06.311Z,23.80
2019-04-03T11:25:41.565Z,32.83
2019-04-03T11:28:14.048Z,30.57
2019-04-03T11:30:51.118Z,19.33
2019-04-03T11:33:22.841Z,31.10
2019-04-03T11:35:56.444Z,37.97
2019-04-03T11:38:30.018Z,25.87
2019-04-03T11:41:12.832Z,21.93
2019-04-03T11:43:38.608Z,21.97
2019-04-03T11:46:11.948Z,22.70
2019-04-03T11:48:46.065Z,20.13
2019-04-03T11:51:20.390Z,19.03
2019-04-03T11:53:53.725Z,19.07
2019-04-03T11:56:27.198Z,23.03
2019-04-03T11:59:00.652Z,15.38
2019-04-03T12:01:34.387Z,17.40
2019-04-03T12:04:07.706Z,20.60
2019-04-03T12:06:41.149Z,14.65
2019-04-03T12:09:15.077Z,13.68
2019-04-03T12:11:48.482Z,17.15
2019-04-03T12:14:21.882Z,17.50
2019-04-03T12:16:57.131Z,13.55
2019-04-03T12:19:30.446Z,12.28
2019-04-03T12:22:03.762Z,14.83
2019-04-03T12:24:37.249Z,14.67
2019-04-03T12:27:13.242Z,15.60
2019-04-03T12:29:45.763Z,13.90
2019-04-03T12:32:19.401Z,14.00
2019-04-03T12:34:53.055Z,13.30
2019-04-03T12:37:26.827Z,10.90
2019-04-03T12:40:00.931Z,10.98
2019-04-03T12:42:34.704Z,10.00
2019-04-03T12:45:08.495Z,11.60
2019-04-03T12:47:44.328Z,11.17
2019-04-03T12:50:18.366Z,10.85
2019-04-03T12:52:52.185Z,10.07
2019-04-03T12:55:26.324Z,13.65
2019-04-03T12:58:00.422Z,12.60
2019-04-03T13:00:33.782Z,10.50
2019-04-03T13:03:07.225Z,8.65
2019-04-03T13:05:40.642Z,9.10
2019-04-03T13:08:14.096Z,9.18
2019-04-03T13:10:49.019Z,9.20
2019-04-03T13:13:22.939Z,9.33
2019-04-03T13:15:56.294Z,10.43
2019-04-03T13:18:29.991Z,8.78
2019-04-03T13:21:03.474Z,10.58
2019-04-03T13:23:36.796Z,10.00
2019-04-03T13:26:10.202Z,8.90
2019-04-03T13:28:43.616Z,7.80
2019-04-03T13:31:17.520Z,9.78
2019-04-03T13:33:51.150Z,8.70
2019-04-03T13:36:25.185Z,6.62
2019-04-03T13:39:01.263Z,8.20
2019-04-03T13:41:34.760Z,9.03
2019-04-03T13:44:08.286Z,9.48
2019-04-03T13:46:41.998Z,8.90
2019-04-03T13:49:18.456Z,8.80
2019-04-03T13:51:50.562Z,10.00
2019-04-03T13:54:26.206Z,8.65
2019-04-03T13:56:59.081Z,9.33
2019-04-03T13:59:32.470Z,9.18
2019-04-03T14:02:06.421Z,9.25
2019-04-03T14:04:40.290Z,8.88
2019-04-03T14:07:13.733Z,9.10
2019-04-03T14:09:53.047Z,8.30
2019-04-03T14:12:22.360Z,8.70
2019-04-03T14:14:56.286Z,9.95
2019-04-03T14:17:29.848Z,9.10
2019-04-03T14:20:03.896Z,10.05
2019-04-03T14:22:37.671Z,9.43
2019-04-03T14:25:19.989Z,9.03
2019-04-03T14:27:46.486Z,9.80
2019-04-03T14:30:20.322Z,9.88
2019-04-03T14:32:54.613Z,8.88
2019-04-03T14:35:51.192Z,9.80
2019-04-03T14:38:03.759Z,9.93
2019-04-03T14:40:37.225Z,9.88
2019-04-03T14:43:10.989Z,8.73
2019-04-03T14:45:45.178Z,9.00
2019-04-03T14:48:19.440Z,7.97
2019-04-03T14:50:52.973Z,7.30
2019-04-03T14:53:26.889Z,7.03
2019-04-03T14:56:01.386Z,6.62
2019-04-03T14:58:35.407Z,7.55
2019-04-03T15:01:08.834Z,7.67
2019-04-03T15:03:42.422Z,8.00
2019-04-03T15:06:16.328Z,7.95
2019-04-03T15:08:50.267Z,7.58
2019-04-03T15:11:24.093Z,8.88
2019-04-03T15:13:57.488Z,8.55
2019-04-03T15:16:32.203Z,8.18
2019-04-03T15:19:05.730Z,8.13
2019-04-03T15:21:39.093Z,8.60
2019-04-03T15:24:13.055Z,8.03
2019-04-03T15:26:46.818Z,7.97
2019-04-03T15:29:20.303Z,8.00
2019-04-03T15:31:53.722Z,8.60
2019-04-03T15:34:28.522Z,7.90
2019-04-03T15:37:02.293Z,7.80
2019-04-03T15:39:35.606Z,7.90
2019-04-03T15:42:09.463Z,7.62
2019-04-03T15:44:43.295Z,8.18
2019-04-03T15:47:20.527Z,8.18
2019-04-03T15:50:11.994Z,8.00
2019-04-03T15:52:48.455Z,7.80
2019-04-03T15:55:20.839Z,7.40
2019-04-03T15:57:54.616Z,7.58
2019-04-03T16:00:28.510Z,7.60
2019-04-03T16:03:02.504Z,6.97
2019-04-03T16:05:36.739Z,7.20
2019-04-03T16:08:12.810Z,7.97
2019-04-03T16:10:45.785Z,7.45
2019-04-03T16:13:21.219Z,7.72
2019-04-03T16:15:56.333Z,7.03
2019-04-03T16:18:28.488Z,7.42
2019-04-03T16:21:01.809Z,7.72
2019-04-03T16:23:36.880Z,8.33
2019-04-03T16:26:10.334Z,7.37
2019-04-03T16:28:44.182Z,7.70
2019-04-03T16:31:19.764Z,7.22
2019-04-03T16:33:52.872Z,7.35
2019-04-03T16:36:26.396Z,8.20
2019-04-03T16:39:01.330Z,8.05
2019-04-03T16:41:38.059Z,7.22
2019-04-03T16:44:10.621Z,7.37
2019-04-03T16:46:43.966Z,7.53
2019-04-03T16:49:31.503Z,8.18
2019-04-03T16:52:06.256Z,7.65
2019-04-03T16:54:44.453Z,7.67
2019-04-03T16:57:16.918Z,7.97
2019-04-03T16:59:50.234Z,8.15
2019-04-03T17:02:24.713Z,8.40
2019-04-03T17:04:58.675Z,7.87
2019-04-03T17:07:32.607Z,7.40
2019-04-03T17:10:09.386Z,8.25
2019-04-03T17:12:41.929Z,9.23
2019-04-03T17:15:16.688Z,8.40
2019-04-03T17:17:50.103Z,8.35
2019-04-03T17:20:24.368Z,8.20
2019-04-03T17:22:58.280Z,8.05
2019-04-03T17:25:43.887Z,8.30
2019-04-03T17:28:09.356Z,7.40
2019-04-03T17:30:42.090Z,9.95
2019-04-03T17:33:15.593Z,8.50
2019-04-03T17:35:48.983Z,8.08
2019-04-03T17:38:22.959Z,8.15
2019-04-03T17:40:56.337Z,8.63
2019-04-03T17:43:29.715Z,8.08
2019-04-03T17:46:03.022Z,8.63
2019-04-03T17:48:36.431Z,8.75
2019-04-03T17:51:09.773Z,9.20
2019-04-03T17:53:43.252Z,8.78
2019-04-03T17:56:16.561Z,8.73
2019-04-03T17:58:49.911Z,8.80
2019-04-03T18:01:23.295Z,8.88
2019-04-03T18:03:56.632Z,9.18
2019-04-03T18:06:29.956Z,9.80
2019-04-03T18:09:05.213Z,12.68
2019-04-03T18:11:38.535Z,10.88
2019-04-03T18:14:11.965Z,9.85
2019-04-03T18:16:45.410Z,10.53
2019-04-03T18:19:18.935Z,10.33
2019-04-03T18:21:52.438Z,9.83
2019-04-03T18:24:25.810Z,10.55
2019-04-03T18:27:02.264Z,9.90
2019-04-03T18:29:37.286Z,10.83
2019-04-03T18:32:09.842Z,8.83
2019-04-03T18:34:43.403Z,9.73
2019-04-03T18:37:17.034Z,11.03
2019-04-03T18:39:51.554Z,11.20
2019-04-03T18:42:25.169Z,9.80
2019-04-03T18:44:58.750Z,10.50
2019-04-03T18:47:41.273Z,9.75
2019-04-03T18:50:09.937Z,9.90
2019-04-03T18:52:42.571Z,9.68
2019-04-03T18:55:16.027Z,11.05
2019-04-03T18:57:50.274Z,10.88
2019-04-03T19:00:23.918Z,12.77
2019-04-03T19:02:57.398Z,12.70
2019-04-03T19:05:30.716Z,11.73
2019-04-03T19:08:13.162Z,14.27
2019-04-03T19:10:39.291Z,13.40
2019-04-03T19:13:13.993Z,12.80
2019-04-03T19:15:47.804Z,13.13
2019-04-03T19:18:21.190Z,13.03
2019-04-03T19:20:54.512Z,13.78
2019-04-03T19:23:27.956Z,14.07
2019-04-03T19:26:01.376Z,14.98
2019-04-03T19:28:35.055Z,15.17
2019-04-03T19:31:09.339Z,11.48
2019-04-03T19:33:44.680Z,13.50
2019-04-03T19:36:17.859Z,12.73
2019-04-03T19:38:53.511Z,12.63
2019-04-03T19:41:26.362Z,11.10
2019-04-03T19:44:00.794Z,15.10
2019-04-03T19:46:34.245Z,15.93
2019-04-03T19:49:07.713Z,15.07
2019-04-03T19:51:41.157Z,12.40
2019-04-03T19:54:14.933Z,16.13
2019-04-03T19:56:49.623Z,13.10
2019-04-03T19:59:22.963Z,13.60
2019-04-03T20:01:56.364Z,14.40
2019-04-03T20:04:29.775Z,14.80
2019-04-03T20:07:03.192Z,16.00
2019-04-03T20:09:36.620Z,15.90
2019-04-03T20:12:10.084Z,13.23
2019-04-03T20:14:57.184Z,16.90
2019-04-03T20:17:18.680Z,14.27
2019-04-03T20:19:52.135Z,13.13
2019-04-03T20:22:25.516Z,16.60
2019-04-03T20:25:00.148Z,15.10
2019-04-03T20:27:34.023Z,21.57
2019-04-03T20:30:08.744Z,14.83
2019-04-03T20:32:42.253Z,16.53
2019-04-03T20:35:18.053Z,14.67
2019-04-03T20:37:50.808Z,20.37
2019-04-03T20:40:24.330Z,15.77
2019-04-03T20:42:57.706Z,15.83
2019-04-03T20:45:31.052Z,15.67
2019-04-03T20:48:04.442Z,15.00
2019-04-03T20:50:38.668Z,16.20
2019-04-03T20:53:12.088Z,15.60
2019-04-03T20:55:45.708Z,15.40
2019-04-03T20:58:19.110Z,16.17
2019-04-03T21:01:05.784Z,17.23
2019-04-03T21:03:27.632Z,18.50
2019-04-03T21:06:01.008Z,20.07
2019-04-03T21:08:34.440Z,21.30
2019-04-03T21:11:08.639Z,20.90
2019-04-03T21:13:42.402Z,19.83
2019-04-03T21:16:16.961Z,21.70
2019-04-03T21:18:51.783Z,23.17
2019-04-03T21:21:26.021Z,24.37
2019-04-03T21:23:59.515Z,24.47
2019-04-03T21:26:32.919Z,24.10
2019-04-03T21:29:06.316Z,25.57
2019-04-03T21:31:39.747Z,26.57
2019-04-03T21:34:13.097Z,30.33
2019-04-03T21:36:46.761Z,34.37
2019-04-03T21:39:20.147Z,32.73
2019-04-03T21:41:54.044Z,31.87
2019-04-03T21:44:29.961Z,32.97
2019-04-03T21:47:04.024Z,32.90
2019-04-03T21:49:37.412Z,32.90
2019-04-03T21:52:10.811Z,36.10
2019-04-03T21:54:44.258Z,37.83
2019-04-03T21:57:17.576Z,35.90
2019-04-03T21:59:51.040Z,34.87
2019-04-03T22:02:24.461Z,33.20
2019-04-03T22:04:57.840Z,32.20
2019-04-03T22:07:31.195Z,36.97
2019-04-03T22:10:08.635Z,33.73
2019-04-03T22:12:40.922Z,31.47
2019-04-03T22:15:14.686Z,35.93
2019-04-03T22:17:47.978Z,31.00
2019-04-03T22:20:21.573Z,33.03
2019-04-03T22:22:54.894Z,37.20
2019-04-03T22:25:28.242Z,30.73
2019-04-03T22:28:01.562Z,33.33
2019-04-03T22:30:34.981Z,34.07
2019-04-03T22:33:08.482Z,33.27
2019-04-03T22:35:41.853Z,33.57
2019-04-03T22:38:15.338Z,34.63
2019-04-03T22:40:48.694Z,32.97
2019-04-03T22:43:22.018Z,36.07
2019-04-03T22:45:55.443Z,33.93
2019-04-03T22:48:28.903Z,30.67
2019-04-03T22:51:02.252Z,32.10
2019-04-03T22:53:35.670Z,35.53
2019-04-03T22:56:09.092Z,34.17
2019-04-03T22:58:42.521Z,33.37
2019-04-03T23:01:15.892Z,29.93
2019-04-03T23:03:49.448Z,24.70
2019-04-03T23:06:22.782Z,24.20
2019-04-03T23:08:56.189Z,23.17
2019-04-03T23:11:31.743Z,18.80
2019-04-03T23:14:06.847Z,16.17
2019-04-03T23:16:42.659Z,18.00
2019-04-03T23:19:17.965Z,16.37
2019-04-03T23:21:52.898Z,15.00
2019-04-03T23:24:28.538Z,12.90
2019-04-03T23:27:02.705Z,10.23
2019-04-03T23:29:36.825Z,10.90
2019-04-03T23:32:10.367Z,10.67
2019-04-03T23:34:43.760Z,10.70
2019-04-03T23:37:17.275Z,9.33
2019-04-03T23:39:50.685Z,8.50
2019-04-03T23:42:24.073Z,9.57
2019-04-03T23:44:57.495Z,9.03
2019-04-03T23:47:30.839Z,9.20
2019-04-03T23:50:07.328Z,11.00
2019-04-03T23:52:40.748Z,8.67
2019-04-03T23:55:14.126Z,9.40
2019-04-03T23:57:47.566Z,8.53
